sensor_id;sensor_type;location;lat;lon;timestamp;pressure;altitude;pressure_sealevel;temperature;humidity
35694;BME280;21812;55.536;37.664;2022-07-29T00:01:15;99789.31;;;17.48;74.73
35694;BME280;21812;55.536;37.664;2022-07-29T00:03:41;99770.72;;;17.40;75.03
35694;BME280;21812;55.536;37.664;2022-07-29T00:06:07;99787.66;;;17.47;74.50
35694;BME280;21812;55.536;37.664;2022-07-29T00:08:33;99787.06;;;17.45;74.48
35694;BME280;21812;55.536;37.664;2022-07-29T00:10:58;99786.03;;;17.46;75.12
35694;BME280;21812;55.536;37.664;2022-07-29T00:13:24;99780.25;;;17.43;74.58
35694;BME280;21812;55.536;37.664;2022-07-29T00:15:50;99787.78;;;17.41;74.30
35694;BME280;21812;55.536;37.664;2022-07-29T00:18:15;99784.00;;;17.30;74.18
35694;BME280;21812;55.536;37.664;2022-07-29T00:20:41;99782.09;;;17.30;74.20
35694;BME280;21812;55.536;37.664;2022-07-29T00:23:07;99792.09;;;17.30;74.55
35694;BME280;21812;55.536;37.664;2022-07-29T00:25:32;99795.59;;;17.30;74.60
35694;BME280;21812;55.536;37.664;2022-07-29T00:27:58;99798.78;;;17.27;73.76
35694;BME280;21812;55.536;37.664;2022-07-29T00:30:24;99794.44;;;17.26;74.26
35694;BME280;21812;55.536;37.664;2022-07-29T00:32:49;99796.75;;;17.23;73.85
35694;BME280;21812;55.536;37.664;2022-07-29T00:35:15;99795.94;;;17.10;73.96
35694;BME280;21812;55.536;37.664;2022-07-29T00:37:59;99801.56;;;17.09;73.83
35694;BME280;21812;55.536;37.664;2022-07-29T00:40:25;99799.94;;;17.08;73.70
35694;BME280;21812;55.536;37.664;2022-07-29T00:42:52;99803.66;;;17.07;73.42
35694;BME280;21812;55.536;37.664;2022-07-29T00:45:18;99802.25;;;17.04;73.32
35694;BME280;21812;55.536;37.664;2022-07-29T00:47:44;99784.38;;;16.91;73.62
35694;BME280;21812;55.536;37.664;2022-07-29T00:50:11;99817.50;;;16.98;73.91
35694;BME280;21812;55.536;37.664;2022-07-29T00:52:39;99810.06;;;16.94;73.88
35694;BME280;21812;55.536;37.664;2022-07-29T00:55:08;99789.13;;;16.77;74.28
35694;BME280;21812;55.536;37.664;2022-07-29T00:57:34;99818.25;;;16.87;73.96
35694;BME280;21812;55.536;37.664;2022-07-29T01:00:02;99829.16;;;16.92;74.03
35694;BME280;21812;55.536;37.664;2022-07-29T01:02:29;99826.25;;;16.94;74.44
35694;BME280;21812;55.536;37.664;2022-07-29T01:04:55;99832.94;;;16.91;74.58
35694;BME280;21812;55.536;37.664;2022-07-29T01:07:24;99826.56;;;16.86;74.40
35694;BME280;21812;55.536;37.664;2022-07-29T01:09:51;99835.25;;;16.88;74.36
35694;BME280;21812;55.536;37.664;2022-07-29T01:12:25;99777.78;;;16.57;74.75
35694;BME280;21812;55.536;37.664;2022-07-29T01:14:53;99831.06;;;16.92;74.64
35694;BME280;21812;55.536;37.664;2022-07-29T01:29:34;99851.00;;;16.91;74.42
35694;BME280;21812;55.536;37.664;2022-07-29T01:32:16;99819.94;;;16.70;74.19
35694;BME280;21812;55.536;37.664;2022-07-29T01:37:31;99844.41;;;16.68;74.64
35694;BME280;21812;55.536;37.664;2022-07-29T01:39:59;99835.44;;;16.56;74.50
35694;BME280;21812;55.536;37.664;2022-07-29T01:42:30;99839.63;;;16.52;75.36
35694;BME280;21812;55.536;37.664;2022-07-29T01:47:37;99806.84;;;16.36;74.91
35694;BME280;21812;55.536;37.664;2022-07-29T01:50:08;99819.19;;;16.44;74.83
35694;BME280;21812;55.536;37.664;2022-07-29T01:52:46;99841.78;;;16.61;74.60
35694;BME280;21812;55.536;37.664;2022-07-29T01:55:20;99809.56;;;16.36;74.69
35694;BME280;21812;55.536;37.664;2022-07-29T01:57:50;99836.72;;;16.53;74.22
35694;BME280;21812;55.536;37.664;2022-07-29T02:00:18;99835.75;;;16.48;74.67
35694;BME280;21812;55.536;37.664;2022-07-29T02:02:47;99840.53;;;16.46;74.69
35694;BME280;21812;55.536;37.664;2022-07-29T02:05:15;99831.25;;;16.41;74.57
35694;BME280;21812;55.536;37.664;2022-07-29T02:07:43;99838.16;;;16.37;74.85
35694;BME280;21812;55.536;37.664;2022-07-29T02:10:12;99838.22;;;16.31;75.68
35694;BME280;21812;55.536;37.664;2022-07-29T02:12:39;99843.16;;;16.34;75.44
35694;BME280;21812;55.536;37.664;2022-07-29T02:15:28;99819.88;;;16.21;75.59
35694;BME280;21812;55.536;37.664;2022-07-29T02:17:58;99828.78;;;16.21;75.64
35694;BME280;21812;55.536;37.664;2022-07-29T02:20:25;99844.44;;;16.31;75.95
35694;BME280;21812;55.536;37.664;2022-07-29T02:22:52;99838.59;;;16.34;75.90
35694;BME280;21812;55.536;37.664;2022-07-29T02:25:20;99846.69;;;16.34;75.48
35694;BME280;21812;55.536;37.664;2022-07-29T02:27:49;99819.94;;;16.14;75.58
35694;BME280;21812;55.536;37.664;2022-07-29T02:30:16;99842.78;;;16.30;75.66
35694;BME280;21812;55.536;37.664;2022-07-29T02:32:43;99848.31;;;16.35;75.51
35694;BME280;21812;55.536;37.664;2022-07-29T02:35:13;99797.88;;;16.06;75.86
35694;BME280;21812;55.536;37.664;2022-07-29T02:37:41;99849.38;;;16.34;75.69
35694;BME280;21812;55.536;37.664;2022-07-29T02:40:09;99854.00;;;16.27;75.76
35694;BME280;21812;55.536;37.664;2022-07-29T02:42:38;99827.22;;;16.14;76.18
35694;BME280;21812;55.536;37.664;2022-07-29T02:45:06;99852.06;;;16.34;76.18
35694;BME280;21812;55.536;37.664;2022-07-29T02:47:36;99822.81;;;16.19;76.29
35694;BME280;21812;55.536;37.664;2022-07-29T02:50:12;99855.53;;;16.41;76.01
35694;BME280;21812;55.536;37.664;2022-07-29T02:52:45;99862.25;;;16.51;75.44
35694;BME280;21812;55.536;37.664;2022-07-29T02:55:29;99847.50;;;16.35;76.33
35694;BME280;21812;55.536;37.664;2022-07-29T02:58:07;99836.44;;;16.25;76.01
35694;BME280;21812;55.536;37.664;2022-07-29T03:00:37;99864.25;;;16.37;75.97
35694;BME280;21812;55.536;37.664;2022-07-29T03:03:09;99864.47;;;16.35;75.74
35694;BME280;21812;55.536;37.664;2022-07-29T03:05:36;99862.41;;;16.37;76.20
35694;BME280;21812;55.536;37.664;2022-07-29T03:08:04;99834.34;;;16.27;77.23
35694;BME280;21812;55.536;37.664;2022-07-29T03:10:31;99860.16;;;16.34;75.63
35694;BME280;21812;55.536;37.664;2022-07-29T03:12:58;99855.47;;;16.78;78.12
35694;BME280;21812;55.536;37.664;2022-07-29T03:15:24;99865.81;;;16.81;74.89
35694;BME280;21812;55.536;37.664;2022-07-29T03:17:51;99857.03;;;16.68;73.97
35694;BME280;21812;55.536;37.664;2022-07-29T03:20:18;99862.84;;;16.53;73.92
35694;BME280;21812;55.536;37.664;2022-07-29T03:22:44;99854.22;;;16.44;75.13
35694;BME280;21812;55.536;37.664;2022-07-29T03:25:14;99865.59;;;16.65;76.43
35694;BME280;21812;55.536;37.664;2022-07-29T03:27:41;99864.56;;;17.14;81.29
35694;BME280;21812;55.536;37.664;2022-07-29T03:30:08;99844.00;;;17.13;76.78
35694;BME280;21812;55.536;37.664;2022-07-29T03:32:34;99848.56;;;17.43;75.19
35694;BME280;21812;55.536;37.664;2022-07-29T03:35:00;99850.16;;;17.86;77.20
35694;BME280;21812;55.536;37.664;2022-07-29T03:37:26;99848.41;;;18.04;70.85
35694;BME280;21812;55.536;37.664;2022-07-29T03:39:55;99841.16;;;18.45;73.22
35694;BME280;21812;55.536;37.664;2022-07-29T03:42:23;99830.69;;;18.77;72.71
35694;BME280;21812;55.536;37.664;2022-07-29T03:44:50;99855.81;;;19.01;70.31
35694;BME280;21812;55.536;37.664;2022-07-29T03:47:22;99821.72;;;19.34;73.67
35694;BME280;21812;55.536;37.664;2022-07-29T03:49:50;99839.34;;;19.82;71.69
35694;BME280;21812;55.536;37.664;2022-07-29T03:52:17;99857.53;;;20.04;70.04
35694;BME280;21812;55.536;37.664;2022-07-29T03:54:44;99858.38;;;19.53;64.40
35694;BME280;21812;55.536;37.664;2022-07-29T03:57:11;99868.47;;;19.12;64.64
35694;BME280;21812;55.536;37.664;2022-07-29T03:59:37;99860.59;;;18.70;65.55
35694;BME280;21812;55.536;37.664;2022-07-29T04:02:05;99878.06;;;18.51;65.64
35694;BME280;21812;55.536;37.664;2022-07-29T04:04:34;99874.81;;;18.25;64.86
35694;BME280;21812;55.536;37.664;2022-07-29T04:07:03;99875.78;;;17.95;65.55
35694;BME280;21812;55.536;37.664;2022-07-29T04:09:29;99877.38;;;17.73;66.60
35694;BME280;21812;55.536;37.664;2022-07-29T04:11:58;99877.00;;;17.57;67.10
35694;BME280;21812;55.536;37.664;2022-07-29T04:14:23;99875.78;;;17.53;66.87
35694;BME280;21812;55.536;37.664;2022-07-29T04:16:49;99875.69;;;17.48;68.00
35694;BME280;21812;55.536;37.664;2022-07-29T04:19:14;99864.16;;;17.41;68.61
35694;BME280;21812;55.536;37.664;2022-07-29T04:21:43;99874.03;;;17.47;68.16
35694;BME280;21812;55.536;37.664;2022-07-29T04:24:10;99878.97;;;17.50;68.53
35694;BME280;21812;55.536;37.664;2022-07-29T04:26:36;99882.25;;;17.52;69.04
35694;BME280;21812;55.536;37.664;2022-07-29T04:29:02;99887.66;;;17.52;68.82
35694;BME280;21812;55.536;37.664;2022-07-29T04:31:30;99887.22;;;17.55;68.50
35694;BME280;21812;55.536;37.664;2022-07-29T04:33:56;99887.22;;;17.55;68.39
35694;BME280;21812;55.536;37.664;2022-07-29T04:36:21;99890.00;;;17.61;68.99
35694;BME280;21812;55.536;37.664;2022-07-29T04:38:47;99894.47;;;17.55;68.15
35694;BME280;21812;55.536;37.664;2022-07-29T04:41:15;99885.78;;;17.53;67.98
35694;BME280;21812;55.536;37.664;2022-07-29T04:43:45;99886.25;;;17.50;68.08
35694;BME280;21812;55.536;37.664;2022-07-29T04:46:13;99888.69;;;17.51;67.91
35694;BME280;21812;55.536;37.664;2022-07-29T04:48:39;99894.09;;;17.51;67.33
35694;BME280;21812;55.536;37.664;2022-07-29T04:51:04;99889.91;;;17.55;67.37
35694;BME280;21812;55.536;37.664;2022-07-29T04:53:30;99903.41;;;17.55;66.83
35694;BME280;21812;55.536;37.664;2022-07-29T04:55:56;99894.69;;;17.53;67.09
35694;BME280;21812;55.536;37.664;2022-07-29T04:58:21;99897.16;;;17.55;67.18
35694;BME280;21812;55.536;37.664;2022-07-29T05:00:49;99898.00;;;17.55;67.14
35694;BME280;21812;55.536;37.664;2022-07-29T05:03:15;99874.03;;;17.47;67.78
35694;BME280;21812;55.536;37.664;2022-07-29T05:05:41;99891.19;;;17.53;67.60
35694;BME280;21812;55.536;37.664;2022-07-29T05:08:07;99887.22;;;17.55;67.31
35694;BME280;21812;55.536;37.664;2022-07-29T05:10:34;99880.16;;;17.54;67.69
35694;BME280;21812;55.536;37.664;2022-07-29T05:13:06;99893.31;;;17.63;67.08
35694;BME280;21812;55.536;37.664;2022-07-29T05:15:33;99893.78;;;17.59;66.81
35694;BME280;21812;55.536;37.664;2022-07-29T05:18:00;99894.47;;;17.55;67.46
35694;BME280;21812;55.536;37.664;2022-07-29T05:20:26;99899.63;;;17.56;68.65
35694;BME280;21812;55.536;37.664;2022-07-29T05:22:55;99897.53;;;17.58;68.63
35694;BME280;21812;55.536;37.664;2022-07-29T05:25:21;99896.50;;;17.59;68.71
35694;BME280;21812;55.536;37.664;2022-07-29T05:27:47;99893.31;;;17.63;67.83
35694;BME280;21812;55.536;37.664;2022-07-29T05:30:13;99893.31;;;17.63;67.68
35694;BME280;21812;55.536;37.664;2022-07-29T05:32:38;99894.47;;;17.67;67.16
35694;BME280;21812;55.536;37.664;2022-07-29T05:35:05;99894.03;;;17.70;67.48
35694;BME280;21812;55.536;37.664;2022-07-29T05:37:31;99896.03;;;17.74;67.81
35694;BME280;21812;55.536;37.664;2022-07-29T05:39:56;99885.00;;;17.76;67.11
35694;BME280;21812;55.536;37.664;2022-07-29T05:42:22;99893.69;;;17.78;67.14
35694;BME280;21812;55.536;37.664;2022-07-29T05:44:48;99892.63;;;17.79;67.19
35694;BME280;21812;55.536;37.664;2022-07-29T05:47:13;99885.56;;;17.78;67.64
35694;BME280;21812;55.536;37.664;2022-07-29T05:49:39;99888.91;;;17.80;67.48
35694;BME280;21812;55.536;37.664;2022-07-29T05:52:05;99886.31;;;17.85;68.07
35694;BME280;21812;55.536;37.664;2022-07-29T05:54:31;99885.38;;;17.91;67.70
35694;BME280;21812;55.536;37.664;2022-07-29T05:56:56;99888.69;;;17.93;67.28
35694;BME280;21812;55.536;37.664;2022-07-29T05:59:22;99876.81;;;17.94;66.96
35694;BME280;21812;55.536;37.664;2022-07-29T06:01:50;99884.91;;;17.94;67.39
35694;BME280;21812;55.536;37.664;2022-07-29T06:04:21;99889.59;;;17.99;66.80
35694;BME280;21812;55.536;37.664;2022-07-29T06:06:47;99888.69;;;18.05;66.36
35694;BME280;21812;55.536;37.664;2022-07-29T06:09:12;99886.81;;;18.06;66.63
35694;BME280;21812;55.536;37.664;2022-07-29T06:11:39;99885.75;;;18.07;66.29
35694;BME280;21812;55.536;37.664;2022-07-29T06:14:07;99887.50;;;18.13;65.81
35694;BME280;21812;55.536;37.664;2022-07-29T06:16:38;99892.44;;;18.16;65.23
35694;BME280;21812;55.536;37.664;2022-07-29T06:19:04;99891.50;;;18.22;65.31
35694;BME280;21812;55.536;37.664;2022-07-29T06:21:30;99878.09;;;18.27;65.33
35694;BME280;21812;55.536;37.664;2022-07-29T06:23:55;99881.88;;;18.26;64.84
35694;BME280;21812;55.536;37.664;2022-07-29T06:26:21;99882.56;;;18.33;65.58
35694;BME280;21812;55.536;37.664;2022-07-29T06:28:47;99877.84;;;18.41;65.44
35694;BME280;21812;55.536;37.664;2022-07-29T06:31:12;99882.78;;;18.44;64.80
35694;BME280;21812;55.536;37.664;2022-07-29T06:33:38;99880.19;;;18.49;64.89
35694;BME280;21812;55.536;37.664;2022-07-29T06:36:05;99832.41;;;18.14;63.03
35694;BME280;21812;55.536;37.664;2022-07-29T06:38:32;99869.50;;;18.42;63.71
35694;BME280;21812;55.536;37.664;2022-07-29T06:41:00;99875.72;;;18.43;63.40
35694;BME280;21812;55.536;37.664;2022-07-29T06:43:35;99876.63;;;18.48;63.71
35694;BME280;21812;55.536;37.664;2022-07-29T06:46:05;99865.38;;;18.51;62.81
35694;BME280;21812;55.536;37.664;2022-07-29T06:48:32;99873.59;;;18.56;61.11
35694;BME280;21812;55.536;37.664;2022-07-29T06:50:58;99878.72;;;18.58;61.22
35694;BME280;21812;55.536;37.664;2022-07-29T06:53:25;99870.38;;;18.60;61.61
35694;BME280;21812;55.536;37.664;2022-07-29T06:55:51;99869.09;;;18.62;61.63
35694;BME280;21812;55.536;37.664;2022-07-29T06:58:16;99871.53;;;18.64;61.11
35694;BME280;21812;55.536;37.664;2022-07-29T07:00:55;99879.44;;;18.65;60.81
35694;BME280;21812;55.536;37.664;2022-07-29T07:03:24;99876.84;;;18.70;60.67
35694;BME280;21812;55.536;37.664;2022-07-29T07:05:51;99875.53;;;18.73;60.93
35694;BME280;21812;55.536;37.664;2022-07-29T07:08:19;99877.53;;;18.78;61.06
35694;BME280;21812;55.536;37.664;2022-07-29T07:10:48;99876.00;;;18.82;61.21
35694;BME280;21812;55.536;37.664;2022-07-29T07:13:14;99877.97;;;18.86;60.79
35694;BME280;21812;55.536;37.664;2022-07-29T07:15:43;99882.09;;;18.89;58.43
35694;BME280;21812;55.536;37.664;2022-07-29T07:18:09;99878.44;;;18.95;59.00
35694;BME280;21812;55.536;37.664;2022-07-29T07:20:35;99887.47;;;19.01;58.69
35694;BME280;21812;55.536;37.664;2022-07-29T07:23:02;99885.69;;;19.06;57.51
35694;BME280;21812;55.536;37.664;2022-07-29T07:25:28;99882.25;;;19.11;57.33
35694;BME280;21812;55.536;37.664;2022-07-29T07:27:54;99887.66;;;19.11;58.00
35694;BME280;21812;55.536;37.664;2022-07-29T07:30:19;99888.00;;;19.14;58.37
35694;BME280;21812;55.536;37.664;2022-07-29T07:32:45;99888.66;;;19.22;58.18
35694;BME280;21812;55.536;37.664;2022-07-29T07:35:11;99884.75;;;19.29;57.49
35694;BME280;21812;55.536;37.664;2022-07-29T07:37:38;99883.28;;;19.39;56.61
35694;BME280;21812;55.536;37.664;2022-07-29T07:40:06;99887.97;;;19.43;57.53
35694;BME280;21812;55.536;37.664;2022-07-29T07:42:32;99883.13;;;19.45;57.46
35694;BME280;21812;55.536;37.664;2022-07-29T07:44:58;99873.84;;;19.41;57.27
35694;BME280;21812;55.536;37.664;2022-07-29T07:47:24;99888.06;;;19.48;56.88
35694;BME280;21812;55.536;37.664;2022-07-29T07:49:50;99890.84;;;19.53;57.02
35694;BME280;21812;55.536;37.664;2022-07-29T07:52:17;99888.22;;;19.59;56.22
35694;BME280;21812;55.536;37.664;2022-07-29T07:54:43;99882.47;;;19.55;55.67
35694;BME280;21812;55.536;37.664;2022-07-29T07:57:11;99898.97;;;19.53;54.97
35694;BME280;21812;55.536;37.664;2022-07-29T07:59:37;99899.78;;;19.54;55.50
35694;BME280;21812;55.536;37.664;2022-07-29T08:02:03;99899.06;;;19.59;55.48
35694;BME280;21812;55.536;37.664;2022-07-29T08:04:29;99895.09;;;19.66;56.03
35694;BME280;21812;55.536;37.664;2022-07-29T08:06:56;99901.31;;;19.79;54.94
35694;BME280;21812;55.536;37.664;2022-07-29T08:09:23;99906.84;;;19.84;54.47
35694;BME280;21812;55.536;37.664;2022-07-29T08:11:50;99902.22;;;19.84;54.12
35694;BME280;21812;55.536;37.664;2022-07-29T08:14:16;99900.81;;;19.82;53.26
35694;BME280;21812;55.536;37.664;2022-07-29T08:16:42;99896.47;;;19.81;54.37
35694;BME280;21812;55.536;37.664;2022-07-29T08:19:08;99897.38;;;19.86;54.68
35694;BME280;21812;55.536;37.664;2022-07-29T08:21:34;99892.03;;;19.91;52.72
35694;BME280;21812;55.536;37.664;2022-07-29T08:24:00;99892.19;;;20.02;53.19
35694;BME280;21812;55.536;37.664;2022-07-29T08:26:45;99879.22;;;20.04;51.48
35694;BME280;21812;55.536;37.664;2022-07-29T08:29:11;99886.75;;;20.19;50.91
35694;BME280;21812;55.536;37.664;2022-07-29T08:31:40;99880.00;;;20.21;51.29
35694;BME280;21812;55.536;37.664;2022-07-29T08:34:06;99885.41;;;20.21;50.70
35694;BME280;21812;55.536;37.664;2022-07-29T08:36:32;99885.94;;;20.18;50.43
35694;BME280;21812;55.536;37.664;2022-07-29T08:38:59;99882.91;;;20.15;51.25
35694;BME280;21812;55.536;37.664;2022-07-29T08:41:25;99881.44;;;20.29;50.92
35694;BME280;21812;55.536;37.664;2022-07-29T08:43:52;99882.19;;;20.41;50.02
35694;BME280;21812;55.536;37.664;2022-07-29T08:46:19;99869.22;;;20.48;49.10
35694;BME280;21812;55.536;37.664;2022-07-29T08:48:45;99875.25;;;20.50;49.70
35694;BME280;21812;55.536;37.664;2022-07-29T08:51:16;99847.34;;;20.33;49.53
35694;BME280;21812;55.536;37.664;2022-07-29T08:53:43;99880.28;;;20.42;49.89
35694;BME280;21812;55.536;37.664;2022-07-29T08:56:16;99883.06;;;20.47;50.88
35694;BME280;21812;55.536;37.664;2022-07-29T08:58:44;99879.78;;;20.45;49.71
35694;BME280;21812;55.536;37.664;2022-07-29T09:01:12;99854.34;;;20.29;50.87
35694;BME280;21812;55.536;37.664;2022-07-29T09:03:40;99874.78;;;20.37;51.05
35694;BME280;21812;55.536;37.664;2022-07-29T09:06:06;99877.56;;;20.42;51.91
35694;BME280;21812;55.536;37.664;2022-07-29T09:08:32;99878.94;;;20.44;51.04
35694;BME280;21812;55.536;37.664;2022-07-29T09:11:01;99882.88;;;20.54;51.64
35694;BME280;21812;55.536;37.664;2022-07-29T09:13:27;99872.44;;;20.62;48.86
35694;BME280;21812;55.536;37.664;2022-07-29T09:15:53;99861.63;;;20.67;49.69
35694;BME280;21812;55.536;37.664;2022-07-29T09:18:38;99868.81;;;20.79;49.80
35694;BME280;21812;55.536;37.664;2022-07-29T09:21:06;99857.84;;;20.68;50.33
35694;BME280;21812;55.536;37.664;2022-07-29T09:24:12;99833.53;;;20.57;50.65
35694;BME280;21812;55.536;37.664;2022-07-29T09:26:44;99850.00;;;20.50;50.00
35694;BME280;21812;55.536;37.664;2022-07-29T09:29:17;99874.44;;;20.72;50.89
35694;BME280;21812;55.536;37.664;2022-07-29T09:31:47;99871.91;;;20.87;50.73
35694;BME280;21812;55.536;37.664;2022-07-29T09:34:35;99853.69;;;20.83;49.55
35694;BME280;21812;55.536;37.664;2022-07-29T09:37:03;99877.91;;;21.17;47.99
35694;BME280;21812;55.536;37.664;2022-07-29T09:39:34;99846.50;;;20.99;47.75
35694;BME280;21812;55.536;37.664;2022-07-29T09:42:05;99886.81;;;21.12;48.90
35694;BME280;21812;55.536;37.664;2022-07-29T09:44:48;99886.81;;;21.12;49.67
35694;BME280;21812;55.536;37.664;2022-07-29T09:47:16;99881.50;;;21.22;50.43
35694;BME280;21812;55.536;37.664;2022-07-29T09:50:00;99883.09;;;21.45;49.48
35694;BME280;21812;55.536;37.664;2022-07-29T09:52:27;99884.81;;;21.57;48.33
35694;BME280;21812;55.536;37.664;2022-07-29T09:55:04;99879.25;;;21.74;49.32
35694;BME280;21812;55.536;37.664;2022-07-29T09:57:30;99877.00;;;21.98;48.90
35694;BME280;21812;55.536;37.664;2022-07-29T10:00:12;99859.81;;;21.92;48.15
35694;BME280;21812;55.536;37.664;2022-07-29T10:02:40;99873.75;;;22.01;47.81
35694;BME280;21812;55.536;37.664;2022-07-29T10:05:16;99881.63;;;21.97;47.72
35694;BME280;21812;55.536;37.664;2022-07-29T10:10:09;99882.47;;;22.03;47.83
35694;BME280;21812;55.536;37.664;2022-07-29T10:12:50;99868.41;;;22.21;48.08
35694;BME280;21812;55.536;37.664;2022-07-29T10:15:16;99872.44;;;22.61;46.37
35694;BME280;21812;55.536;37.664;2022-07-29T10:17:42;99869.81;;;22.92;46.70
35694;BME280;21812;55.536;37.664;2022-07-29T10:20:09;99872.38;;;23.25;43.69
35694;BME280;21812;55.536;37.664;2022-07-29T10:22:35;99872.13;;;23.47;42.93
35694;BME280;21812;55.536;37.664;2022-07-29T10:25:02;99864.78;;;23.68;41.36
35694;BME280;21812;55.536;37.664;2022-07-29T10:27:29;99866.97;;;23.86;40.63
35694;BME280;21812;55.536;37.664;2022-07-29T10:29:55;99866.13;;;24.06;40.66
35694;BME280;21812;55.536;37.664;2022-07-29T10:32:38;99875.06;;;24.37;40.13
35694;BME280;21812;55.536;37.664;2022-07-29T10:38:07;99870.34;;;24.48;39.37
35694;BME280;21812;55.536;37.664;2022-07-29T10:40:49;99870.66;;;24.36;39.70
35694;BME280;21812;55.536;37.664;2022-07-29T10:43:42;99841.16;;;24.49;39.99
35694;BME280;21812;55.536;37.664;2022-07-29T10:46:10;99873.53;;;24.81;39.27
35694;BME280;21812;55.536;37.664;2022-07-29T10:49:12;99873.56;;;25.26;38.21
35694;BME280;21812;55.536;37.664;2022-07-29T10:54:17;99866.25;;;25.11;37.95
35694;BME280;21812;55.536;37.664;2022-07-29T10:56:42;99864.19;;;24.92;38.60
35694;BME280;21812;55.536;37.664;2022-07-29T11:01:47;99868.25;;;25.74;37.38
35694;BME280;21812;55.536;37.664;2022-07-29T11:04:22;99870.50;;;26.25;36.36
35694;BME280;21812;55.536;37.664;2022-07-29T11:09:34;99870.22;;;26.51;36.17
35694;BME280;21812;55.536;37.664;2022-07-29T11:12:00;99860.88;;;26.52;34.15
35694;BME280;21812;55.536;37.664;2022-07-29T11:14:55;99866.94;;;26.73;34.67
35694;BME280;21812;55.536;37.664;2022-07-29T11:17:21;99874.50;;;26.81;35.82
35694;BME280;21812;55.536;37.664;2022-07-29T11:19:48;99838.00;;;26.86;33.72
35694;BME280;21812;55.536;37.664;2022-07-29T11:22:32;99867.34;;;27.23;33.54
35694;BME280;21812;55.536;37.664;2022-07-29T11:25:15;99879.03;;;27.10;33.96
35694;BME280;21812;55.536;37.664;2022-07-29T11:27:41;99871.94;;;27.28;33.91
35694;BME280;21812;55.536;37.664;2022-07-29T11:30:11;99874.38;;;26.91;34.02
35694;BME280;21812;55.536;37.664;2022-07-29T11:32:39;99863.22;;;26.40;34.34
35694;BME280;21812;55.536;37.664;2022-07-29T11:35:19;99874.16;;;26.16;34.74
35694;BME280;21812;55.536;37.664;2022-07-29T11:43:55;99889.72;;;26.20;37.31
35694;BME280;21812;55.536;37.664;2022-07-29T11:46:45;99878.59;;;27.03;35.93
35694;BME280;21812;55.536;37.664;2022-07-29T11:49:26;99875.72;;;27.32;34.00
35694;BME280;21812;55.536;37.664;2022-07-29T11:51:53;99876.78;;;26.74;36.07
35694;BME280;21812;55.536;37.664;2022-07-29T11:54:34;99887.44;;;26.51;36.04
35694;BME280;21812;55.536;37.664;2022-07-29T11:57:00;99888.03;;;26.24;36.52
35694;BME280;21812;55.536;37.664;2022-07-29T11:59:26;99884.09;;;26.36;36.38
35694;BME280;21812;55.536;37.664;2022-07-29T12:01:56;99882.44;;;26.34;35.88
35694;BME280;21812;55.536;37.664;2022-07-29T12:04:22;99870.22;;;26.27;36.98
35694;BME280;21812;55.536;37.664;2022-07-29T12:06:50;99853.94;;;27.03;34.91
35694;BME280;21812;55.536;37.664;2022-07-29T12:09:18;99840.00;;;28.17;34.33
35694;BME280;21812;55.536;37.664;2022-07-29T12:11:43;99862.81;;;28.95;32.91
35694;BME280;21812;55.536;37.664;2022-07-29T12:16:52;99864.16;;;30.19;29.91
35694;BME280;21812;55.536;37.664;2022-07-29T12:19:18;99862.03;;;30.56;29.02
35694;BME280;21812;55.536;37.664;2022-07-29T12:21:46;99831.13;;;30.77;28.88
35694;BME280;21812;55.536;37.664;2022-07-29T12:24:12;99860.19;;;31.09;28.39
35694;BME280;21812;55.536;37.664;2022-07-29T12:26:52;99821.56;;;31.27;28.50
35694;BME280;21812;55.536;37.664;2022-07-29T12:29:18;99858.41;;;31.05;28.20
35694;BME280;21812;55.536;37.664;2022-07-29T12:31:45;99875.09;;;30.91;28.57
35694;BME280;21812;55.536;37.664;2022-07-29T12:34:13;99864.69;;;30.88;28.32
35694;BME280;21812;55.536;37.664;2022-07-29T12:36:42;99864.34;;;30.72;28.00
35694;BME280;21812;55.536;37.664;2022-07-29T12:39:08;99864.66;;;30.70;28.27
35694;BME280;21812;55.536;37.664;2022-07-29T12:41:35;99855.47;;;31.01;29.14
35694;BME280;21812;55.536;37.664;2022-07-29T12:44:01;99858.09;;;31.15;28.29
35694;BME280;21812;55.536;37.664;2022-07-29T12:46:27;99855.28;;;30.89;28.85
35694;BME280;21812;55.536;37.664;2022-07-29T12:48:53;99866.16;;;31.37;27.79
35694;BME280;21812;55.536;37.664;2022-07-29T12:51:33;99860.97;;;31.18;28.00
35694;BME280;21812;55.536;37.664;2022-07-29T12:54:03;99865.75;;;30.52;28.29
35694;BME280;21812;55.536;37.664;2022-07-29T12:56:29;99857.34;;;30.17;29.10
35694;BME280;21812;55.536;37.664;2022-07-29T12:58:55;99857.81;;;29.34;30.83
35694;BME280;21812;55.536;37.664;2022-07-29T13:01:21;99867.50;;;28.95;31.04
35694;BME280;21812;55.536;37.664;2022-07-29T13:03:55;99866.09;;;28.83;31.95
35694;BME280;21812;55.536;37.664;2022-07-29T13:06:44;99865.50;;;28.73;31.96
35694;BME280;21812;55.536;37.664;2022-07-29T13:09:18;99858.81;;;29.15;31.82
35694;BME280;21812;55.536;37.664;2022-07-29T13:11:46;99863.75;;;29.50;31.61
35694;BME280;21812;55.536;37.664;2022-07-29T13:14:31;99864.47;;;29.78;31.17
35694;BME280;21812;55.536;37.664;2022-07-29T13:17:15;99862.69;;;29.37;31.95
35694;BME280;21812;55.536;37.664;2022-07-29T13:19:51;99867.88;;;29.61;30.99
35694;BME280;21812;55.536;37.664;2022-07-29T13:22:20;99842.72;;;30.08;29.85
35694;BME280;21812;55.536;37.664;2022-07-29T13:27:18;99866.84;;;31.52;28.36
35694;BME280;21812;55.536;37.664;2022-07-29T13:29:44;99857.72;;;31.69;27.29
35694;BME280;21812;55.536;37.664;2022-07-29T13:32:18;99856.13;;;31.24;28.21
35694;BME280;21812;55.536;37.664;2022-07-29T13:34:44;99851.38;;;30.72;29.64
35694;BME280;21812;55.536;37.664;2022-07-29T13:37:10;99857.03;;;30.58;28.90
35694;BME280;21812;55.536;37.664;2022-07-29T13:39:35;99865.84;;;30.29;29.23
35694;BME280;21812;55.536;37.664;2022-07-29T13:42:07;99852.13;;;30.07;29.63